Time;durP1;ratioP1;P1;durP2;ratioP2;P2;SDS_P1;SDS_P2;PMS_P1;PMS_P2;Temp;Humidity;BMP_temperature;BMP_pressure;BME280_temperature;BME280_humidity;BME280_pressure;Samples;Min_cycle;Max_cycle;Signal;HPM_P1;HPM_P2
2023/04/17 00:00:49;;;;;;;;;8.33;8.33;;;;;12.17;61.16;101779.59;4967712;28;46038;-82
2023/04/17 00:03:17;;;;;;;;;5.00;5.00;;;;;12.23;60.80;101785.94;4969532;28;45472;-82
2023/04/17 00:05:45;;;;;;;;;4.00;3.33;;;;;12.04;60.22;101758.84;4970489;28;45539;-82
2023/04/17 00:08:10;;;;;;;;;7.67;7.67;;;;;12.17;60.25;101766.25;4969178;28;47292;-81
2023/04/17 00:10:36;;;;;;;;;5.00;5.00;;;;;12.12;60.25;101761.66;4967717;28;45312;-82
2023/04/17 00:13:01;;;;;;;;;4.33;4.33;;;;;12.16;60.30;101763.56;4969613;28;45345;-82
2023/04/17 00:15:27;;;;;;;;;5.67;5.33;;;;;12.12;59.61;101762.59;4970011;28;44776;-82
2023/04/17 00:17:52;;;;;;;;;3.00;2.00;;;;;12.12;60.27;101762.59;4969297;28;45440;-81
2023/04/17 00:23:39;;;;;;;;;4.00;4.00;;;;;12.09;60.22;101756.28;4969418;28;45740;-81
2023/04/17 00:26:05;;;;;;;;;5.33;4.00;;;;;12.06;59.68;101753.53;4964370;28;45711;-82
2023/04/17 00:28:31;;;;;;;;;4.33;4.33;;;;;12.10;59.99;101751.00;4968287;28;45613;-84
2023/04/17 00:31:00;;;;;;;;;5.00;4.33;;;;;11.98;60.06;101743.59;4959550;28;45052;-83
2023/04/17 00:33:25;;;;;;;;;4.00;4.00;;;;;12.02;59.14;101755.25;4968427;28;44917;-81
2023/04/17 00:35:51;;;;;;;;;7.33;4.33;;;;;12.00;59.92;101748.97;4969505;28;45692;-81
2023/04/17 00:38:16;;;;;;;;;5.33;5.33;;;;;11.96;60.20;101745.31;4969979;28;45175;-83
2023/04/17 00:40:44;;;;;;;;;6.33;6.00;;;;;11.97;60.27;101744.44;4968807;28;44880;-83
2023/04/17 00:43:09;;;;;;;;;3.33;3.33;;;;;11.99;60.11;101749.81;4969509;28;45381;-81
2023/04/17 00:45:35;;;;;;;;;5.33;3.67;;;;;11.95;60.34;101739.94;4968530;28;44859;-81
2023/04/17 00:48:03;;;;;;;;;6.00;4.00;;;;;12.04;60.33;101740.19;4969061;28;46966;-82
2023/04/17 00:50:32;;;;;;;;;5.00;5.00;;;;;12.08;60.23;101747.38;4967466;28;45351;-82
2023/04/17 00:52:59;;;;;;;;;5.00;5.00;;;;;12.00;60.37;101741.88;4969561;28;45352;-82
2023/04/17 00:55:32;;;;;;;;;7.00;4.00;;;;;11.91;60.39;101740.72;4981126;28;45419;-82
2023/04/17 00:57:58;;;;;;;;;4.00;4.00;;;;;11.88;60.38;101730.88;4988881;28;45355;-83
2023/04/17 01:00:24;;;;;;;;;7.67;7.00;;;;;11.82;60.75;101734.28;4988521;28;45403;-82
2023/04/17 01:02:49;;;;;;;;;5.67;4.00;;;;;11.88;61.00;101740.66;4989005;28;45766;-81
2023/04/17 01:05:16;;;;;;;;;7.00;7.00;;;;;11.93;60.87;101733.69;4989739;28;45400;-82
2023/04/17 01:07:44;;;;;;;;;5.00;5.00;;;;;11.85;61.12;101729.88;4987648;28;47645;-81
2023/04/17 01:10:10;;;;;;;;;6.67;5.33;;;;;11.85;61.14;101740.56;4987655;28;45413;-80
2023/04/17 01:12:35;;;;;;;;;7.00;4.33;;;;;11.84;61.50;101733.44;4987273;28;44786;-82
2023/04/17 01:15:01;;;;;;;;;8.67;8.00;;;;;11.84;61.88;101733.44;4987853;28;45427;-81
2023/04/17 01:17:27;;;;;;;;;7.67;7.67;;;;;11.78;61.74;101727.06;4988141;28;47503;-82
2023/04/17 01:19:53;;;;;;;;;9.67;7.00;;;;;11.75;61.79;101715.44;4989803;28;45450;-82
2023/04/17 01:22:22;;;;;;;;;7.67;7.67;;;;;11.81;62.44;101719.16;4987843;28;45384;-82
2023/04/17 01:24:48;;;;;;;;;9.00;8.00;;;;;11.66;62.71;101718.78;4988002;28;45435;-82
2023/04/17 01:27:13;;;;;;;;;7.00;4.67;;;;;11.60;62.55;101718.63;4986169;28;47058;-82
2023/04/17 01:29:42;;;;;;;;;6.67;5.33;;;;;11.67;62.40;101714.34;4985911;28;45439;-82
2023/04/17 01:32:07;;;;;;;;;7.00;7.00;;;;;11.61;62.38;101731.06;4986811;28;45428;-81
2023/04/17 01:34:33;;;;;;;;;6.33;4.67;;;;;11.61;62.22;101733.72;4987591;28;45571;-81
2023/04/17 01:36:58;;;;;;;;;4.00;4.00;;;;;11.55;61.97;101728.25;4987486;28;46996;-81
2023/04/17 01:39:24;;;;;;;;;8.67;7.00;;;;;11.57;62.85;101730.09;4988455;28;45431;-82
2023/04/17 01:41:50;;;;;;;;;9.33;9.33;;;;;11.53;63.25;101728.22;4988143;28;45450;-83
2023/04/17 01:44:17;;;;;;;;;10.33;10.00;;;;;11.55;64.29;101725.56;4966348;28;45514;-81
2023/04/17 01:46:42;;;;;;;;;11.00;8.33;;;;;11.45;64.75;101731.53;4948928;28;46260;-83
2023/04/17 01:49:09;;;;;;;;;10.67;10.00;;;;;11.40;65.37;101718.09;4948808;28;45431;-81
2023/04/17 01:51:35;;;;;;;;;13.00;10.67;;;;;11.38;65.66;101718.06;4950848;28;45892;-83
2023/04/17 01:54:00;;;;;;;;;10.33;10.33;;;;;11.36;66.01;101725.09;4949067;28;45647;-81
2023/04/17 01:56:26;;;;;;;;;12.33;12.33;;;;;11.31;66.27;101721.44;4948012;28;46944;-82
2023/04/17 01:58:54;;;;;;;;;15.00;15.00;;;;;11.40;66.84;101732.31;4948375;28;45440;-82
2023/04/17 02:01:20;;;;;;;;;10.00;9.00;;;;;11.19;66.96;101721.09;4948096;28;45952;-82
2023/04/17 02:03:45;;;;;;;;;9.33;9.33;;;;;11.17;67.30;101725.47;4950579;28;45390;-82
2023/04/17 02:06:11;;;;;;;;;15.00;14.00;;;;;11.13;67.57;101721.81;4951342;28;47628;-81
2023/04/17 02:08:36;;;;;;;;;9.67;9.67;;;;;11.04;67.97;101723.31;4951887;28;45421;-81
2023/04/17 02:11:02;;;;;;;;;6.33;5.00;;;;;11.04;68.06;101729.53;4951366;28;45305;-82
2023/04/17 02:13:27;;;;;;;;;11.00;11.00;;;;;11.06;68.12;101724.28;4950632;28;45418;-82
2023/04/17 02:15:52;;;;;;;;;12.67;12.33;;;;;11.06;68.41;101730.50;4950436;28;48293;-81
2023/04/17 02:18:18;;;;;;;;;15.33;10.33;;;;;11.05;68.26;101730.44;4951514;28;45471;-82
2023/04/17 02:20:43;;;;;;;;;12.33;11.00;;;;;11.04;68.42;101731.31;4951285;28;45320;-81
2023/04/17 02:23:09;;;;;;;;;11.33;11.33;;;;;10.98;68.67;101716.97;4951120;28;45372;-81
2023/04/17 02:25:35;;;;;;;;;10.00;8.00;;;;;10.94;68.87;101712.41;4952054;28;46140;-83
2023/04/17 02:28:03;;;;;;;;;10.00;10.00;;;;;10.95;69.17;101722.22;4951042;28;45408;-84
2023/04/17 02:30:29;;;;;;;;;11.33;9.33;;;;;10.92;69.25;101705.25;4950923;28;45428;-82
2023/04/17 02:32:55;;;;;;;;;9.67;9.33;;;;;10.94;69.16;101706.19;4950111;28;45465;-81
2023/04/17 02:35:25;;;;;;;;;11.33;10.00;;;;;10.96;68.87;101713.34;4951250;28;47188;-81
2023/04/17 02:37:53;;;;;;;;;9.33;9.33;;;;;10.81;69.03;101707.63;4971051;28;45487;-81
2023/04/17 02:40:19;;;;;;;;;13.00;13.00;;;;;10.80;68.71;101705.78;4971191;28;45409;-81
2023/04/17 02:42:44;;;;;;;;;12.00;12.00;;;;;10.77;69.01;101703.06;4971197;28;45510;-82
2023/04/17 02:45:10;;;;;;;;;12.67;9.67;;;;;10.73;68.99;101701.19;4972110;28;45384;-83
2023/04/17 02:47:36;;;;;;;;;10.00;10.00;;;;;10.74;68.95;101705.63;4972676;28;45396;-82
2023/04/17 02:50:02;;;;;;;;;11.67;10.67;;;;;10.74;69.13;101716.25;4971273;28;45405;-83
2023/04/17 02:52:31;;;;;;;;;13.67;12.67;;;;;10.73;68.98;101711.81;4971460;28;45333;-82
2023/04/17 02:54:56;;;;;;;;;9.33;9.33;;;;;10.71;69.14;101721.50;4979761;28;47248;-81
2023/04/17 02:57:23;;;;;;;;;12.67;10.67;;;;;10.70;69.22;101709.94;5011643;28;45487;-82
2023/04/17 02:59:49;;;;;;;;;14.67;11.67;;;;;10.65;69.34;101716.03;4982624;28;46535;-82
2023/04/17 03:02:20;;;;;;;;;12.67;12.00;;;;;10.57;69.44;101707.81;4990445;28;45365;-83
2023/04/17 03:04:49;;;;;;;;;15.00;14.00;;;;;10.57;69.80;101718.44;4991165;28;46121;-83
2023/04/17 03:07:20;;;;;;;;;14.00;12.33;;;;;10.65;69.97;101718.69;4956922;28;45360;-81
2023/04/17 03:09:46;;;;;;;;;14.33;13.67;;;;;10.52;69.73;101710.34;4972206;28;45500;-82
2023/04/17 03:12:13;;;;;;;;;17.33;15.33;;;;;10.44;70.00;101695.88;4972229;28;45447;-82
2023/04/17 03:14:39;;;;;;;;;19.00;14.33;;;;;10.48;70.18;101711.06;4987821;28;47106;-82
2023/04/17 03:17:07;;;;;;;;;14.33;14.33;;;;;10.52;70.18;101713.00;4971743;28;45966;-83
2023/04/17 03:19:32;;;;;;;;;12.00;12.00;;;;;10.41;70.59;101707.34;4989820;28;45360;-82
2023/04/17 03:21:58;;;;;;;;;14.33;13.00;;;;;10.41;70.98;101706.44;4973326;28;45560;-82
2023/04/17 03:24:23;;;;;;;;;12.33;12.33;;;;;10.43;70.94;101710.03;4973406;28;47593;-81
2023/04/17 03:26:48;;;;;;;;;14.00;10.00;;;;;10.39;70.90;101711.69;4989935;28;45447;-82
2023/04/17 03:29:17;;;;;;;;;12.33;10.33;;;;;10.45;71.08;101699.47;4971726;28;45807;-81
2023/04/17 03:31:42;;;;;;;;;11.33;11.33;;;;;10.36;71.21;101705.38;4971640;28;45509;-81
2023/04/17 03:34:08;;;;;;;;;11.33;11.33;;;;;10.34;71.51;101697.38;4989526;28;45381;-83
2023/04/17 03:36:33;;;;;;;;;13.67;13.67;;;;;10.36;71.70;101710.69;4970963;28;45335;-81
2023/04/17 03:38:59;;;;;;;;;13.33;12.00;;;;;10.34;72.03;101715.06;4989516;28;45494;-82
2023/04/17 03:41:25;;;;;;;;;17.00;17.00;;;;;10.39;71.86;101713.47;4972635;28;45407;-82
2023/04/17 03:43:51;;;;;;;;;14.00;12.00;;;;;10.20;72.14;101712.88;4991011;28;45524;-81
2023/04/17 03:46:16;;;;;;;;;11.33;11.33;;;;;10.24;72.58;101713.88;4972100;28;45076;-82
2023/04/17 03:48:42;;;;;;;;;10.00;9.33;;;;;10.28;72.58;101715.78;4990285;28;45487;-82
2023/04/17 03:51:10;;;;;;;;;14.67;11.67;;;;;10.33;72.59;101715.94;4971666;28;45632;-81
2023/04/17 03:53:37;;;;;;;;;15.67;13.67;;;;;10.40;72.80;101709.94;4972280;28;47350;-81
2023/04/17 03:56:02;;;;;;;;;13.67;9.67;;;;;10.44;73.06;101727.78;5003639;28;45450;-82
2023/04/17 03:58:28;;;;;;;;;13.33;11.67;;;;;10.53;73.30;101730.75;5008322;28;45811;-82
2023/04/17 04:00:54;;;;;;;;;9.00;9.00;;;;;10.59;73.12;101727.38;4991792;28;45336;-83
2023/04/17 04:03:20;;;;;;;;;12.33;12.00;;;;;10.64;73.24;101720.41;5010123;28;45419;-82
2023/04/17 04:05:46;;;;;;;;;16.33;14.00;;;;;10.68;73.17;101721.41;5007966;28;45438;-82
2023/04/17 04:08:11;;;;;;;;;11.33;11.33;;;;;10.66;72.96;101723.13;4990517;28;45423;-81
2023/04/17 04:10:37;;;;;;;;;13.33;13.33;;;;;10.70;72.71;101730.34;4989986;28;45308;-83
2023/04/17 04:13:02;;;;;;;;;16.67;14.67;;;;;10.67;72.75;101722.28;5009410;28;45293;-80
2023/04/17 04:15:27;;;;;;;;;17.67;14.00;;;;;10.61;72.90;101726.56;4993137;28;45570;-81
2023/04/17 04:17:53;;;;;;;;;19.67;17.33;;;;;10.60;73.05;101726.50;5010318;28;45454;-82
2023/04/17 04:20:18;;;;;;;;;10.33;10.33;;;;;10.60;73.29;101730.09;4992843;28;45546;-83
2023/04/17 04:22:44;;;;;;;;;13.33;13.33;;;;;10.60;72.98;101730.09;4991937;28;48010;-83
2023/04/17 04:25:11;;;;;;;;;13.33;13.00;;;;;10.57;73.24;101724.66;4992060;28;44969;-83
2023/04/17 04:27:36;;;;;;;;;12.00;10.00;;;;;10.56;73.17;101728.19;4990718;28;45458;-82
2023/04/17 04:30:03;;;;;;;;;12.00;12.00;;;;;10.59;73.10;101730.91;5009082;28;45393;-82
2023/04/17 04:32:28;;;;;;;;;15.33;12.33;;;;;10.54;73.09;101724.59;4991640;28;46723;-83
2023/04/17 04:34:55;;;;;;;;;13.67;12.33;;;;;10.61;72.89;101729.22;4991968;28;45402;-82
2023/04/17 04:37:28;;;;;;;;;13.33;13.00;;;;;10.54;72.97;101727.25;5008282;28;44915;-82
2023/04/17 04:40:00;;;;;;;;;11.67;11.67;;;;;10.71;73.23;101732.16;5009284;28;45376;-83
2023/04/17 04:42:30;;;;;;;;;12.00;9.67;;;;;10.74;73.55;101738.44;4990673;28;45487;-85
2023/04/17 04:44:56;;;;;;;;;12.00;11.00;;;;;10.64;73.25;101739.03;4991239;28;48016;-82
2023/04/17 04:47:28;;;;;;;;;12.00;12.00;;;;;10.62;73.43;101732.75;4991145;28;45316;-81
2023/04/17 04:49:53;;;;;;;;;12.00;12.00;;;;;10.68;73.38;101737.38;4992248;28;45361;-82
2023/04/17 04:52:18;;;;;;;;;14.67;14.00;;;;;10.67;73.12;101736.47;5009538;28;53904;-83
2023/04/17 04:54:44;;;;;;;;;10.33;10.33;;;;;10.73;73.72;101733.09;5007750;28;45374;-82
2023/04/17 04:57:10;;;;;;;;;14.67;14.67;;;;;10.68;73.68;101732.06;4990602;28;44837;-81
2023/04/17 04:59:35;;;;;;;;;17.00;14.33;;;;;10.73;73.76;101735.75;5008509;28;45396;-81
2023/04/17 05:02:01;;;;;;;;;14.00;14.00;;;;;10.74;74.09;101737.56;5006878;28;48739;-82
2023/04/17 05:04:26;;;;;;;;;17.00;15.33;;;;;10.73;74.03;101747.31;5007088;28;45348;-81
2023/04/17 05:06:53;;;;;;;;;13.67;12.67;;;;;10.80;74.09;101748.38;5007236;28;45388;-83
2023/04/17 05:09:18;;;;;;;;;11.67;11.67;;;;;10.72;74.16;101745.47;4990984;28;45496;-81
2023/04/17 05:11:43;;;;;;;;;17.00;15.33;;;;;10.78;74.46;101745.66;5008637;28;45390;-81
2023/04/17 05:14:09;;;;;;;;;11.67;11.67;;;;;10.82;74.53;101742.22;5006545;28;45383;-81
2023/04/17 05:16:35;;;;;;;;;16.67;16.67;;;;;10.88;74.45;101740.63;5007882;28;45462;-81
2023/04/17 05:19:00;;;;;;;;;15.67;12.33;;;;;10.87;74.63;101729.09;4990650;28;45451;-82
2023/04/17 05:21:26;;;;;;;;;16.67;15.67;;;;;10.96;74.57;101741.75;5009390;28;45012;-81
2023/04/17 05:23:52;;;;;;;;;13.00;13.00;;;;;10.96;74.92;101741.75;4990304;28;45440;-82
2023/04/17 05:26:20;;;;;;;;;15.00;15.00;;;;;10.94;75.30;101736.38;4990568;28;45514;-82
2023/04/17 05:28:46;;;;;;;;;24.00;20.00;;;;;10.99;75.20;101742.72;4991003;28;44864;-83
2023/04/17 05:31:16;;;;;;;;;19.00;15.33;;;;;11.18;75.18;101748.56;5008399;28;46669;-81
2023/04/17 05:33:42;;;;;;;;;21.00;20.67;;;;;11.12;75.10;101745.75;4991401;28;44914;-82
2023/04/17 05:36:08;;;;;;;;;18.00;18.00;;;;;11.20;75.12;101744.19;5008583;28;45395;-83
2023/04/17 05:38:34;;;;;;;;;18.33;16.67;;;;;11.23;74.79;101752.28;5012197;28;45478;-81
2023/04/17 05:41:02;;;;;;;;;18.67;14.67;;;;;11.41;74.88;101752.78;4995413;28;48448;-83
2023/04/17 05:44:17;;;;;;;;;16.67;14.33;;;;;11.50;74.20;101756.53;5004484;28;44846;-81
2023/04/17 05:46:43;;;;;;;;;15.00;15.00;;;;;11.39;74.36;101751.84;4991425;28;44804;-81
2023/04/17 05:49:08;;;;;;;;;19.00;17.67;;;;;11.33;74.45;101738.34;4983594;28;45410;-83
2023/04/17 05:51:34;;;;;;;;;26.33;20.67;;;;;11.37;75.09;101749.97;5011418;28;46116;-81
2023/04/17 05:54:01;;;;;;;;;25.00;20.00;;;;;11.44;75.91;101743.94;5011528;28;45327;-81
2023/04/17 05:56:33;;;;;;;;;29.00;26.67;;;;;11.58;76.53;101753.22;4991965;28;45604;-82
2023/04/17 05:58:58;;;;;;;;;36.67;28.67;;;;;11.40;77.21;101742.97;4987542;28;45443;-82
2023/04/17 06:01:24;;;;;;;;;31.00;25.67;;;;;11.50;77.93;101749.44;4963487;28;46992;-81
2023/04/17 06:03:49;;;;;;;;;28.33;26.00;;;;;11.44;77.81;101751.06;4989065;28;45557;-83
2023/04/17 06:06:15;;;;;;;;;27.00;27.00;;;;;11.48;78.27;101761.81;4972895;28;46029;-82
2023/04/17 06:08:41;;;;;;;;;32.33;28.67;;;;;11.44;78.88;101753.72;4962276;28;44959;-81
2023/04/17 06:11:06;;;;;;;;;31.00;25.50;;;;;11.47;78.98;101764.44;4989642;28;48243;-83
2023/04/17 06:13:32;;;;;;;;;28.33;26.00;;;;;11.41;79.92;101751.84;4973491;28;45661;-82
2023/04/17 06:16:00;;;;;;;;;28.33;23.00;;;;;11.48;79.84;101756.50;4991078;28;45376;-84
2023/04/17 06:18:25;;;;;;;;;31.67;31.00;;;;;11.50;79.19;101754.78;4992939;28;44722;-81
2023/04/17 06:20:51;;;;;;;;;21.33;19.33;;;;;11.55;78.72;101753.16;4990784;28;47053;-83
2023/04/17 06:23:16;;;;;;;;;23.67;23.67;;;;;11.57;78.29;101761.16;4991888;28;45330;-82
2023/04/17 06:25:42;;;;;;;;;22.00;20.00;;;;;11.60;78.11;101763.91;4974944;28;45807;-83
2023/04/17 06:28:07;;;;;;;;;27.33;24.00;;;;;11.50;78.29;101759.19;4979826;28;45406;-83
2023/04/17 06:31:16;;;;;;;;;25.67;21.67;;;;;11.72;78.19;101764.22;4992800;28;46496;-82
2023/04/17 06:33:48;;;;;;;;;28.00;21.00;;;;;11.53;78.64;101746.88;4992125;28;45790;-82
2023/04/17 06:36:17;;;;;;;;;30.00;24.67;;;;;11.70;79.09;101762.41;4993068;28;45452;-84
2023/04/17 06:38:43;;;;;;;;;32.00;29.00;;;;;11.57;79.87;101762.06;4993293;28;45556;-83
2023/04/17 06:41:08;;;;;;;;;32.33;27.00;;;;;11.58;80.32;101762.97;4996245;28;46842;-83
2023/04/17 06:43:34;;;;;;;;;37.00;34.33;;;;;11.70;81.01;101770.38;4974035;28;45394;-83
2023/04/17 06:46:13;;;;;;;;;38.67;35.67;;;;;11.80;81.74;101770.66;4971335;28;45406;-83
2023/04/17 06:48:45;;;;;;;;;33.33;30.67;;;;;11.65;82.63;101748.94;4972080;28;45452;-82
2023/04/17 06:51:10;;;;;;;;;33.33;31.33;;;;;11.64;82.83;101760.47;4984719;28;47366;-81
2023/04/17 06:53:36;;;;;;;;;29.00;25.00;;;;;11.65;82.65;101772.91;4984331;28;45315;-82
2023/04/17 06:56:08;;;;;;;;;37.67;31.33;;;;;11.49;83.87;101752.97;5001578;28;46472;-83
2023/04/17 06:58:42;;;;;;;;;36.67;32.00;;;;;11.51;83.63;101761.00;4976076;28;45463;-81
2023/04/17 07:01:31;;;;;;;;;39.00;37.00;;;;;11.58;84.03;101750.53;4979525;28;45344;-82
2023/04/17 07:04:16;;;;;;;;;37.00;30.33;;;;;11.66;85.38;101774.72;4982834;28;44675;-82
2023/04/17 07:06:42;;;;;;;;;41.67;33.67;;;;;11.36;85.09;101751.72;4975056;28;44890;-82
2023/04/17 07:12:37;;;;;;;;;39.00;33.33;;;;;11.62;85.73;101780.84;4919268;29;45159;-82
2023/04/17 07:15:03;;;;;;;;;38.00;34.67;;;;;11.44;87.00;101754.59;4899710;29;45514;-83
2023/04/17 07:17:30;;;;;;;;;34.00;29.33;;;;;11.63;85.81;101793.28;4971058;28;44775;-84
2023/04/17 07:19:55;;;;;;;;;32.33;30.67;;;;;11.63;87.12;101787.97;4978969;28;45446;-83
2023/04/17 07:23:17;;;;;;;;;43.33;33.67;;;;;11.76;86.44;101795.44;4986719;28;45489;-82
2023/04/17 07:25:43;;;;;;;;;38.33;35.33;;;;;11.66;87.22;101801.38;5296367;22;46941;-82
2023/04/17 07:30:42;;;;;;;;;33.67;31.00;;;;;11.61;88.09;101795.00;4968734;28;45993;-83
2023/04/17 07:33:17;;;;;;;;;45.67;36.33;;;;;11.74;88.41;101797.16;4951855;28;47183;-82
2023/04/17 07:35:43;;;;;;;;;39.67;35.00;;;;;11.74;88.49;101797.16;4954384;28;44974;-82
2023/04/17 07:38:08;;;;;;;;;36.33;34.67;;;;;11.85;87.22;101820.50;4983825;28;45455;-82
2023/04/17 07:40:40;;;;;;;;;34.33;33.00;;;;;11.82;86.76;101779.59;4974394;28;45626;-82
2023/04/17 07:43:05;;;;;;;;;35.33;35.33;;;;;11.89;86.08;101795.78;4971473;28;46711;-82
2023/04/17 07:45:32;;;;;;;;;32.67;29.33;;;;;11.91;85.46;101794.03;4968849;28;45413;-83
2023/04/17 07:47:58;;;;;;;;;36.33;32.00;;;;;12.08;85.09;101819.38;4962101;28;45425;-83
2023/04/17 07:50:23;;;;;;;;;35.00;34.00;;;;;11.97;85.10;101794.19;4969886;28;45438;-84
2023/04/17 07:52:53;;;;;;;;;28.33;28.33;;;;;12.11;84.05;101819.44;4973379;28;47105;-82
2023/04/17 07:55:19;;;;;;;;;33.67;31.33;;;;;12.06;84.25;101814.84;4978192;28;45436;-83
2023/04/17 07:58:18;;;;;;;;;35.00;34.00;;;;;12.24;83.68;101810.00;4974665;28;45393;-82
2023/04/17 08:00:51;;;;;;;;;34.67;28.33;;;;;11.90;83.38;101765.59;4978416;28;44847;-83
2023/04/17 08:03:20;;;;;;;;;29.33;25.67;;;;;12.15;83.02;101816.00;4976401;28;46822;-82
2023/04/17 08:06:03;;;;;;;;;31.00;30.33;;;;;12.09;84.09;101815.84;4977738;28;45662;-83
2023/04/17 08:08:36;;;;;;;;;29.33;22.00;;;;;12.22;83.30;101814.41;4974096;28;45383;-82
2023/04/17 08:14:33;;;;;;;;;31.00;31.00;;;;;12.36;84.07;101815.63;4977916;28;45714;-82
2023/04/17 08:17:00;;;;;;;;;37.67;33.00;;;;;12.19;83.99;101780.53;4980362;28;45278;-81
2023/04/17 08:22:58;;;;;;;;;25.33;21.67;;;;;12.40;82.91;101822.84;4948538;28;45491;-80
2023/04/17 08:25:26;;;;;;;;;32.00;30.00;;;;;12.28;82.88;101814.53;4969937;28;47234;-82
2023/04/17 08:28:12;;;;;;;;;32.33;28.00;;;;;12.34;83.29;101811.09;4976171;28;45788;-82
2023/04/17 08:30:42;;;;;;;;;35.33;32.67;;;;;12.45;83.60;101808.72;4975875;28;44902;-81
2023/04/17 08:33:08;;;;;;;;;33.33;32.00;;;;;12.37;83.96;101800.50;4970484;28;45539;-84
2023/04/17 08:36:16;;;;;;;;;33.00;30.33;;;;;12.84;82.56;101815.81;4953968;28;47249;-82
2023/04/17 08:38:43;;;;;;;;;40.33;35.00;;;;;12.80;83.54;101828.19;4962022;28;45612;-83
2023/04/17 08:41:20;;;;;;;;;37.33;35.33;;;;;13.04;82.72;101819.81;4968080;28;45850;-82
2023/04/17 08:43:50;;;;;;;;;34.00;31.67;;;;;13.11;82.56;101807.47;4969966;28;44932;-83
2023/04/17 08:46:23;;;;;;;;;44.67;36.33;;;;;13.16;83.07;101803.13;4970431;28;47163;-84
2023/04/17 08:48:51;;;;;;;;;45.50;39.00;;;;;13.27;82.82;101808.69;4974353;28;44924;-82
2023/04/17 08:51:25;;;;;;;;;43.33;38.00;;;;;13.28;82.11;101775.78;4971147;28;45422;-83
2023/04/17 08:53:51;;;;;;;;;37.00;34.00;;;;;13.50;81.80;101799.41;4973466;28;45522;-82
2023/04/17 08:56:16;;;;;;;;;37.00;35.00;;;;;13.49;81.77;101788.66;4974979;28;46832;-82
2023/04/17 08:58:45;;;;;;;;;41.33;36.33;;;;;13.87;81.52;101807.19;4972544;28;44712;-83
2023/04/17 09:01:15;;;;;;;;;45.67;37.00;;;;;13.82;81.47;101795.53;4975401;28;45461;-82
2023/04/17 09:03:51;;;;;;;;;51.00;38.67;;;;;13.84;80.84;101769.72;4972166;28;44986;-82
2023/04/17 09:06:17;;;;;;;;;52.33;41.33;;;;;13.75;80.25;101776.66;4977478;28;47064;-82
2023/04/17 09:09:01;;;;;;;;;40.33;37.00;;;;;13.92;80.24;101784.13;4975625;28;45388;-83
2023/04/17 09:12:14;;;;;;;;;45.67;37.00;;;;;14.12;80.18;101806.75;4970188;28;45502;-82
2023/04/17 09:14:43;;;;;;;;;53.00;42.00;;;;;13.87;80.28;101794.72;4976981;28;45290;-81
2023/04/17 09:17:17;;;;;;;;;44.33;39.33;;;;;14.12;79.84;101808.53;4980723;28;45434;-83
2023/04/17 09:20:13;;;;;;;;;42.33;36.33;;;;;14.19;78.89;101811.28;4977144;28;45451;-83
2023/04/17 09:23:14;;;;;;;;;56.67;40.00;;;;;14.17;77.90;101812.16;4971250;28;45413;-82
2023/04/17 09:25:41;;;;;;;;;54.67;42.33;;;;;13.68;77.39;101774.78;4973784;28;45645;-81
2023/04/17 09:28:17;;;;;;;;;51.33;41.67;;;;;13.60;78.44;101781.75;4953939;28;45441;-82
2023/04/17 09:30:44;;;;;;;;;37.67;33.67;;;;;13.60;79.77;101803.16;4955703;28;45325;-81
2023/04/17 09:33:11;;;;;;;;;55.33;44.33;;;;;13.64;81.00;101793.41;4957281;28;45464;-79
2023/04/17 09:35:42;;;;;;;;;56.00;42.00;;;;;13.78;80.32;101782.09;4956563;28;45444;-80
2023/04/17 09:38:15;;;;;;;;;56.00;41.67;;;;;13.96;80.65;101799.34;4959436;28;45425;-81
2023/04/17 09:40:44;;;;;;;;;48.00;41.00;;;;;14.07;79.09;101803.06;4936444;28;45837;-83
2023/04/17 09:43:10;;;;;;;;;37.67;32.33;;;;;14.08;78.72;101812.00;4958384;28;45564;-81
2023/04/17 09:45:40;;;;;;;;;51.33;43.67;;;;;14.06;77.58;101793.25;4956850;28;45473;-81
2023/04/17 09:48:12;;;;;;;;;52.33;40.00;;;;;14.12;79.06;101806.75;4958621;28;46194;-81
2023/04/17 09:50:39;;;;;;;;;51.00;40.33;;;;;13.98;78.18;101797.59;4954313;28;45885;-80
2023/04/17 09:53:06;;;;;;;;;55.33;42.00;;;;;13.80;78.85;101764.31;4957798;28;45576;-80
2023/04/17 09:55:40;;;;;;;;;55.67;42.33;;;;;14.15;78.24;101804.09;4938527;28;45425;-81
2023/04/17 09:58:10;;;;;;;;;41.33;33.00;;;;;14.19;77.79;101803.28;4955828;28;45460;-82
2023/04/17 10:00:41;;;;;;;;;53.00;42.67;;;;;14.21;78.58;101796.16;4953072;28;44978;-81
2023/04/17 10:03:16;;;;;;;;;50.67;43.67;;;;;14.14;78.13;101801.44;4957107;28;45440;-82
2023/04/17 10:05:51;;;;;;;;;40.33;37.67;;;;;14.05;77.00;101786.09;4955823;28;44968;-82
2023/04/17 10:11:46;;;;;;;;;45.00;37.67;;;;;14.08;77.97;101767.44;4957604;28;45369;-82
2023/04/17 10:14:57;;;;;;;;;50.00;38.00;;;;;14.35;77.14;101808.88;4958550;28;45212;-83
2023/04/17 10:17:38;;;;;;;;;54.00;42.00;;;;;14.27;77.49;101813.22;4931651;28;44791;-82
2023/04/17 10:20:52;;;;;;;;;51.33;41.67;;;;;14.18;77.62;101822.00;4934557;28;45458;-79
2023/04/17 10:23:31;;;;;;;;;44.67;37.00;;;;;14.09;78.15;101804.00;4926747;28;45369;-80
2023/04/17 10:26:24;;;;;;;;;52.67;41.67;;;;;14.14;77.85;101807.66;4934641;28;45446;-82
2023/04/17 10:28:53;;;;;;;;;45.67;39.00;;;;;13.93;77.80;101800.16;4937655;28;45777;-81
2023/04/17 10:32:08;;;;;;;;;49.33;39.33;;;;;13.88;78.22;101799.19;4955851;28;47965;-83
2023/04/17 10:34:50;;;;;;;;;50.00;40.67;;;;;13.86;79.56;101795.59;4940624;28;45421;-82
2023/04/17 10:37:17;;;;;;;;;48.00;39.67;;;;;13.82;79.53;101800.88;4940818;28;45370;-82
2023/04/17 10:40:08;;;;;;;;;53.33;41.00;;;;;13.90;79.62;101793.88;4959583;28;45503;-82
2023/04/17 10:42:34;;;;;;;;;42.00;37.00;;;;;13.77;79.78;101796.31;4942862;28;45440;-82
2023/04/17 10:45:50;;;;;;;;;45.33;36.33;;;;;13.91;79.69;101793.00;4956013;28;45453;-82
2023/04/17 10:51:44;;;;;;;;;49.00;41.00;;;;;13.97;80.40;101787.75;4935703;28;45892;-81
2023/04/17 10:54:24;;;;;;;;;53.33;42.33;;;;;14.02;79.94;101802.13;4920323;28;45139;-83
2023/04/17 10:56:56;;;;;;;;;54.67;44.33;;;;;13.98;79.83;101794.91;4926986;28;44800;-81
2023/04/17 10:59:48;;;;;;;;;53.00;40.00;;;;;13.98;79.85;101790.47;4917362;29;45248;-80
2023/04/17 11:02:49;;;;;;;;;;;;;;;;;;;;;
2023/04/17 11:05:19;;;;;;;;;45.00;39.00;;;;;13.78;78.64;101778.53;4933147;28;74536;-81
2023/04/17 11:07:50;;;;;;;;;28.00;23.67;;;;;13.77;79.17;101780.28;4932760;28;45496;-80
2023/04/17 11:10:41;;;;;;;;;45.33;38.00;;;;;13.93;79.79;101791.25;4916211;29;45430;-80
2023/04/17 11:13:10;;;;;;;;;52.00;40.33;;;;;14.03;79.69;101777.16;4917890;28;44852;-81
2023/04/17 11:15:57;;;;;;;;;50.67;41.33;;;;;14.13;79.42;101780.88;4940568;28;46467;-79
2023/04/17 11:18:39;;;;;;;;;49.33;39.33;;;;;14.10;79.56;101775.47;4935870;28;45075;-79
2023/04/17 11:21:17;;;;;;;;;49.33;40.33;;;;;14.03;79.43;101730.78;4921219;28;45464;-80
2023/04/17 11:23:51;;;;;;;;;50.67;40.33;;;;;14.15;79.40;101750.59;4935797;28;45447;-80
2023/04/17 11:26:23;;;;;;;;;49.67;37.33;;;;;13.98;79.39;101741.44;4952998;28;48017;-80
2023/04/17 11:28:59;;;;;;;;;46.00;39.67;;;;;14.27;79.04;101771.28;4969948;28;45423;-82
2023/04/17 11:31:31;;;;;;;;;50.00;38.00;;;;;14.36;79.63;101765.16;4953890;28;44907;-82
2023/04/17 11:33:57;;;;;;;;;43.33;36.00;;;;;14.34;78.81;101777.63;4939306;28;45528;-82
2023/04/17 11:36:26;;;;;;;;;44.00;38.00;;;;;14.40;78.03;101742.94;4956635;28;45599;-83
2023/04/17 11:39:13;;;;;;;;;45.33;34.67;;;;;14.44;77.44;101739.44;4953947;28;45187;-81
2023/04/17 11:41:41;;;;;;;;;46.67;39.67;;;;;14.44;75.91;101771.56;4937963;28;45409;-81
2023/04/17 11:44:19;;;;;;;;;36.33;32.33;;;;;14.65;76.96;101767.44;4953225;28;44860;-82
2023/04/17 11:46:57;;;;;;;;;42.33;36.33;;;;;14.76;75.90;101774.69;4939146;28;46853;-82
2023/04/17 11:49:30;;;;;;;;;42.00;37.00;;;;;14.80;76.61;101762.25;4951635;28;44724;-80
2023/04/17 11:52:33;;;;;;;;;50.33;38.00;;;;;14.94;75.18;101760.66;4951685;28;45434;-80